Time;durP1;ratioP1;P1;durP2;ratioP2;P2;SDS_P1;SDS_P2;PMS_P1;PMS_P2;Temp;Humidity;BMP_temperature;BMP_pressure;BME280_temperature;BME280_humidity;BME280_pressure;Samples;Min_cycle;Max_cycle;Signal;HPM_P1;HPM_P2
2023/09/25 00:01:31;;;;;;;10.13;5.25;;;;;;;;;;5068103;28;20509;-39
2023/09/25 00:03:56;;;;;;;9.73;5.78;;;;;;;;;;5067058;28;20032;-38
2023/09/25 00:06:22;;;;;;;11.03;6.07;;;;;;;;;;5070409;28;20084;-38
2023/09/25 00:08:47;;;;;;;9.18;5.40;;;;;;;;;;5068491;28;20254;-38
2023/09/25 00:11:12;;;;;;;10.47;5.97;;;;;;;;;;5072653;28;20024;-38
2023/09/25 00:13:38;;;;;;;10.52;5.00;;;;;;;;;;5066818;28;20309;-38
2023/09/25 00:16:04;;;;;;;7.82;5.07;;;;;;;;;;5065462;28;20428;-39
2023/09/25 00:18:29;;;;;;;7.43;4.93;;;;;;;;;;5066491;28;20231;-38
2023/09/25 00:20:54;;;;;;;8.97;4.43;;;;;;;;;;5068455;28;20486;-38
2023/09/25 00:23:20;;;;;;;7.80;4.50;;;;;;;;;;5066261;28;20275;-38
2023/09/25 00:25:45;;;;;;;7.60;4.93;;;;;;;;;;5066893;28;20044;-38
2023/09/25 00:28:11;;;;;;;9.23;5.20;;;;;;;;;;5064850;28;20016;-38
2023/09/25 00:30:36;;;;;;;7.85;4.57;;;;;;;;;;5065302;28;20023;-38
2023/09/25 00:33:01;;;;;;;10.00;4.80;;;;;;;;;;5066051;28;20054;-37
2023/09/25 00:35:26;;;;;;;12.63;5.60;;;;;;;;;;5063064;28;20392;-38
2023/09/25 00:37:52;;;;;;;9.03;5.30;;;;;;;;;;5069237;28;20502;-38
2023/09/25 00:40:22;;;;;;;12.93;5.50;;;;;;;;;;5063721;28;20267;-38
2023/09/25 00:42:49;;;;;;;7.63;4.97;;;;;;;;;;5065401;28;20060;-38
2023/09/25 00:45:14;;;;;;;14.57;5.97;;;;;;;;;;5062000;28;20489;-38
2023/09/25 00:47:41;;;;;;;9.85;5.90;;;;;;;;;;5065289;28;20100;-38
2023/09/25 00:50:09;;;;;;;9.88;5.40;;;;;;;;;;5058431;28;20021;-37
2023/09/25 00:52:35;;;;;;;9.93;5.47;;;;;;;;;;5064484;28;20017;-38
2023/09/25 00:55:00;;;;;;;8.50;5.57;;;;;;;;;;5063146;28;20025;-38
2023/09/25 00:57:26;;;;;;;10.18;5.38;;;;;;;;;;5063859;28;20575;-37
2023/09/25 00:59:52;;;;;;;10.75;5.25;;;;;;;;;;5062952;28;20020;-38
2023/09/25 01:02:17;;;;;;;11.23;5.38;;;;;;;;;;5063605;28;20378;-38
2023/09/25 01:04:43;;;;;;;8.57;5.40;;;;;;;;;;5060935;28;20019;-37
2023/09/25 01:07:08;;;;;;;9.70;5.28;;;;;;;;;;5060192;28;20031;-37
2023/09/25 01:09:33;;;;;;;9.50;4.60;;;;;;;;;;5064475;28;20017;-38
2023/09/25 01:11:58;;;;;;;10.20;5.03;;;;;;;;;;5061065;28;20267;-38
2023/09/25 01:14:24;;;;;;;9.57;5.40;;;;;;;;;;5061831;28;20901;-38
2023/09/25 01:16:50;;;;;;;8.13;5.20;;;;;;;;;;5058276;28;20266;-38
2023/09/25 01:19:16;;;;;;;9.70;5.65;;;;;;;;;;5064984;28;20032;-38
2023/09/25 01:43:01;;;;;;;9.98;5.82;;;;;;;;;;5063356;28;20759;-37
2023/09/25 01:45:27;;;;;;;11.55;5.22;;;;;;;;;;5060575;28;20035;-37
2023/09/25 01:47:53;;;;;;;9.63;5.03;;;;;;;;;;5065220;28;20028;-37
2023/09/25 01:50:19;;;;;;;7.93;4.85;;;;;;;;;;5061632;28;20020;-37
2023/09/25 01:52:46;;;;;;;11.90;5.13;;;;;;;;;;5064898;28;20029;-38
2023/09/25 01:55:11;;;;;;;8.55;4.53;;;;;;;;;;5062436;28;20033;-37
2023/09/25 01:57:36;;;;;;;8.43;4.60;;;;;;;;;;5058665;28;21316;-38
2023/09/25 02:00:07;;;;;;;7.60;4.30;;;;;;;;;;5064404;28;20738;-38
2023/09/25 02:02:33;;;;;;;10.60;5.90;;;;;;;;;;5064819;28;20261;-37
2023/09/25 02:04:59;;;;;;;9.48;4.20;;;;;;;;;;5063395;28;20033;-37
2023/09/25 02:07:24;;;;;;;10.00;5.15;;;;;;;;;;5062214;28;20024;-37
2023/09/25 02:09:50;;;;;;;9.20;4.60;;;;;;;;;;5063175;28;20033;-38
2023/09/25 02:12:16;;;;;;;7.88;4.65;;;;;;;;;;5061502;28;20283;-38
2023/09/25 02:14:41;;;;;;;7.77;5.00;;;;;;;;;;5065062;28;20089;-37
2023/09/25 02:17:06;;;;;;;10.63;5.90;;;;;;;;;;5060039;28;20286;-38
2023/09/25 02:19:31;;;;;;;7.23;4.83;;;;;;;;;;5061517;28;20281;-38
2023/09/25 02:21:57;;;;;;;10.23;5.35;;;;;;;;;;5059617;28;20691;-38
2023/09/25 02:24:22;;;;;;;8.38;4.68;;;;;;;;;;5064549;28;20028;-38
2023/09/25 02:26:47;;;;;;;10.05;5.32;;;;;;;;;;5064316;28;20025;-38
2023/09/25 02:29:13;;;;;;;9.98;4.90;;;;;;;;;;5064802;28;20090;-38
2023/09/25 02:31:39;;;;;;;8.25;4.72;;;;;;;;;;5064869;28;20021;-38
2023/09/25 02:34:04;;;;;;;8.27;4.43;;;;;;;;;;5058021;28;20058;-37
2023/09/25 02:36:30;;;;;;;8.27;4.95;;;;;;;;;;5047870;28;20023;-37
2023/09/25 02:38:55;;;;;;;8.15;4.38;;;;;;;;;;5063769;28;20068;-37
2023/09/25 02:41:20;;;;;;;36.03;19.37;;;;;;;;;;5059307;28;20025;-38
2023/09/25 02:43:45;;;;;;;7.73;4.83;;;;;;;;;;5065309;28;21098;-37
2023/09/25 02:46:10;;;;;;;9.13;5.83;;;;;;;;;;5062743;28;20366;-38
2023/09/25 02:48:36;;;;;;;9.97;4.27;;;;;;;;;;5066039;28;20274;-38
2023/09/25 02:51:01;;;;;;;8.80;5.10;;;;;;;;;;5061271;28;20335;-38
2023/09/25 02:53:26;;;;;;;7.35;3.85;;;;;;;;;;5064931;28;20267;-37
2023/09/25 02:55:52;;;;;;;5.90;4.50;;;;;;;;;;5063933;28;20069;-37
2023/09/25 02:58:17;;;;;;;7.55;4.07;;;;;;;;;;5063552;28;20490;-38
2023/09/25 03:00:42;;;;;;;8.43;4.40;;;;;;;;;;5064359;28;20032;-38
2023/09/25 03:03:08;;;;;;;7.68;4.38;;;;;;;;;;5062669;28;20270;-37
2023/09/25 03:05:33;;;;;;;9.30;4.30;;;;;;;;;;5063986;28;20108;-38
2023/09/25 03:07:58;;;;;;;9.37;4.87;;;;;;;;;;5067077;28;20060;-38
2023/09/25 03:10:23;;;;;;;5.77;3.10;;;;;;;;;;5069644;28;20263;-37
2023/09/25 03:12:49;;;;;;;7.95;4.28;;;;;;;;;;5069771;28;20750;-38
2023/09/25 03:15:14;;;;;;;5.90;3.90;;;;;;;;;;5069861;28;20035;-38
2023/09/25 03:17:40;;;;;;;14.95;4.80;;;;;;;;;;5065993;28;20613;-38
2023/09/25 03:20:09;;;;;;;9.13;4.32;;;;;;;;;;5068975;28;20097;-37
2023/09/25 03:22:35;;;;;;;11.30;4.97;;;;;;;;;;5070292;28;20020;-38
2023/09/25 03:25:00;;;;;;;6.53;4.13;;;;;;;;;;5066703;28;20024;-38
2023/09/25 03:27:26;;;;;;;8.82;4.90;;;;;;;;;;5068964;28;20023;-38
2023/09/25 03:29:51;;;;;;;7.20;4.70;;;;;;;;;;5070786;28;20024;-38
2023/09/25 03:32:16;;;;;;;8.27;4.70;;;;;;;;;;5071446;28;20032;-37
2023/09/25 03:34:41;;;;;;;5.70;3.60;;;;;;;;;;5065358;28;20267;-37
2023/09/25 03:37:07;;;;;;;7.78;4.80;;;;;;;;;;5066695;28;20055;-37
2023/09/25 03:39:32;;;;;;;7.53;4.75;;;;;;;;;;5064745;28;20048;-37
2023/09/25 03:41:57;;;;;;;10.33;6.73;;;;;;;;;;5068011;28;20413;-37
2023/09/25 03:44:23;;;;;;;8.43;4.67;;;;;;;;;;5068326;28;20270;-37
2023/09/25 03:46:48;;;;;;;7.88;4.05;;;;;;;;;;5067267;28;20389;-37
2023/09/25 03:49:13;;;;;;;6.03;4.10;;;;;;;;;;5064162;28;20108;-37
2023/09/25 03:51:38;;;;;;;10.03;5.30;;;;;;;;;;5065295;28;20746;-37
2023/09/25 03:54:04;;;;;;;12.32;5.50;;;;;;;;;;5065473;28;20305;-36
2023/09/25 03:56:29;;;;;;;8.30;5.22;;;;;;;;;;5062294;28;20032;-37
2023/09/25 03:58:55;;;;;;;10.77;5.23;;;;;;;;;;5062268;28;20033;-37
2023/09/25 04:01:20;;;;;;;9.45;5.32;;;;;;;;;;5068341;28;20270;-37
2023/09/25 04:03:46;;;;;;;8.40;4.93;;;;;;;;;;5068703;28;20390;-37
2023/09/25 04:06:12;;;;;;;9.57;5.50;;;;;;;;;;5063506;28;20031;-37
2023/09/25 04:08:37;;;;;;;8.45;4.53;;;;;;;;;;5066042;28;20604;-37
2023/09/25 04:11:03;;;;;;;9.20;5.03;;;;;;;;;;5069328;28;20087;-37
2023/09/25 04:13:28;;;;;;;5.93;2.80;;;;;;;;;;5067990;28;20777;-37
2023/09/25 04:15:54;;;;;;;6.93;4.32;;;;;;;;;;5065437;28;20024;-37
2023/09/25 04:18:19;;;;;;;11.18;5.07;;;;;;;;;;5060547;28;20662;-37
2023/09/25 04:20:45;;;;;;;14.90;6.10;;;;;;;;;;5065425;28;20378;-37
2023/09/25 04:23:11;;;;;;;9.32;5.30;;;;;;;;;;5067725;28;20040;-37
2023/09/25 04:25:37;;;;;;;11.75;5.07;;;;;;;;;;5068098;28;20542;-37
2023/09/25 04:28:02;;;;;;;10.52;5.32;;;;;;;;;;5065973;28;20537;-37
2023/09/25 04:30:28;;;;;;;7.85;5.05;;;;;;;;;;5067150;28;20025;-38
2023/09/25 04:32:54;;;;;;;11.25;5.50;;;;;;;;;;5060869;28;20028;-37
2023/09/25 04:35:20;;;;;;;9.02;4.88;;;;;;;;;;5066223;28;20154;-37
2023/09/25 04:37:45;;;;;;;8.43;5.03;;;;;;;;;;5063548;28;20155;-37
2023/09/25 04:40:22;;;;;;;8.60;5.40;;;;;;;;;;5067073;28;20110;-37
2023/09/25 04:42:51;;;;;;;9.88;6.00;;;;;;;;;;5068689;28;20028;-37
2023/09/25 04:45:18;;;;;;;10.82;6.32;;;;;;;;;;5066808;28;20163;-37
2023/09/25 04:47:43;;;;;;;8.70;5.05;;;;;;;;;;5049579;28;20024;-36
2023/09/25 04:50:10;;;;;;;9.45;5.93;;;;;;;;;;5066368;28;20028;-37
2023/09/25 04:52:35;;;;;;;9.18;5.60;;;;;;;;;;5061592;28;20020;-37
2023/09/25 04:55:04;;;;;;;18.05;6.00;;;;;;;;;;5062648;28;20016;-37
2023/09/25 04:57:29;;;;;;;11.18;5.72;;;;;;;;;;5062341;28;20385;-37
2023/09/25 04:59:55;;;;;;;14.93;5.93;;;;;;;;;;5066172;28;20028;-37
2023/09/25 05:02:20;;;;;;;9.97;5.77;;;;;;;;;;5064040;28;20271;-37
2023/09/25 05:04:45;;;;;;;11.47;6.50;;;;;;;;;;5064668;28;20362;-37
2023/09/25 05:07:11;;;;;;;11.43;6.20;;;;;;;;;;5065694;28;20287;-37
2023/09/25 05:09:36;;;;;;;23.00;7.70;;;;;;;;;;5065431;28;20336;-37
2023/09/25 05:12:01;;;;;;;16.40;6.83;;;;;;;;;;5063049;28;20074;-37
2023/09/25 05:14:28;;;;;;;10.35;6.82;;;;;;;;;;5062787;28;20278;-37
2023/09/25 05:16:54;;;;;;;12.75;6.78;;;;;;;;;;5061846;28;20043;-37
2023/09/25 05:19:20;;;;;;;10.82;5.43;;;;;;;;;;5065115;28;20024;-37
2023/09/25 05:21:45;;;;;;;11.57;6.00;;;;;;;;;;5065108;28;20665;-37
2023/09/25 05:24:10;;;;;;;8.27;5.53;;;;;;;;;;5047676;28;20572;-37
2023/09/25 05:26:36;;;;;;;12.47;6.50;;;;;;;;;;5063760;28;20295;-37
2023/09/25 05:29:02;;;;;;;8.90;5.47;;;;;;;;;;5065844;28;20267;-37
2023/09/25 05:31:27;;;;;;;8.32;5.20;;;;;;;;;;5064761;28;20999;-37
2023/09/25 05:33:52;;;;;;;12.03;5.87;;;;;;;;;;5065427;28;20024;-37
2023/09/25 05:36:18;;;;;;;9.03;5.57;;;;;;;;;;5061244;28;20298;-37
2023/09/25 05:38:43;;;;;;;11.05;5.50;;;;;;;;;;5070173;28;20267;-37
2023/09/25 05:41:08;;;;;;;12.07;5.50;;;;;;;;;;5066087;28;20028;-37
2023/09/25 05:43:33;;;;;;;10.65;5.70;;;;;;;;;;5064741;28;20274;-37
2023/09/25 05:45:59;;;;;;;11.00;6.03;;;;;;;;;;5066036;28;20032;-37
2023/09/25 05:48:24;;;;;;;11.67;5.70;;;;;;;;;;5065351;28;20024;-37
2023/09/25 05:50:50;;;;;;;42.67;20.98;;;;;;;;;;5064876;28;20644;-37
2023/09/25 05:53:15;;;;;;;43.60;22.08;;;;;;;;;;5066899;28;20052;-37
2023/09/25 05:55:40;;;;;;;37.45;10.88;;;;;;;;;;5061718;28;20064;-37
2023/09/25 05:58:06;;;;;;;39.72;10.57;;;;;;;;;;5068053;28;20028;-37
2023/09/25 06:00:34;;;;;;;47.63;10.60;;;;;;;;;;5065576;28;20373;-37
2023/09/25 06:02:59;;;;;;;27.80;8.95;;;;;;;;;;5065625;28;20051;-37
2023/09/25 06:05:24;;;;;;;21.37;7.10;;;;;;;;;;5060466;28;20032;-37
2023/09/25 06:07:50;;;;;;;22.20;7.50;;;;;;;;;;5057767;28;20270;-36
2023/09/25 06:10:17;;;;;;;13.98;6.72;;;;;;;;;;5063425;28;20343;-37
2023/09/25 06:12:44;;;;;;;17.45;7.43;;;;;;;;;;5062273;28;20024;-37
2023/09/25 06:15:09;;;;;;;14.48;6.25;;;;;;;;;;5060235;28;20189;-37
2023/09/25 06:17:36;;;;;;;18.98;6.63;;;;;;;;;;5061680;28;20676;-37
2023/09/25 06:20:01;;;;;;;16.75;6.80;;;;;;;;;;5063770;28;20035;-37
2023/09/25 06:22:27;;;;;;;16.83;6.38;;;;;;;;;;5063399;28;20032;-37
2023/09/25 06:24:53;;;;;;;12.95;6.63;;;;;;;;;;5060041;28;20047;-37
2023/09/25 06:27:18;;;;;;;11.95;6.55;;;;;;;;;;5060292;28;20409;-37
2023/09/25 06:29:43;;;;;;;14.97;7.20;;;;;;;;;;5061726;28;20406;-37
2023/09/25 06:32:09;;;;;;;10.30;5.82;;;;;;;;;;5062932;28;20321;-37
2023/09/25 06:34:35;;;;;;;11.32;5.43;;;;;;;;;;5059738;28;20023;-37
2023/09/25 06:37:00;;;;;;;10.63;5.87;;;;;;;;;;5060836;28;20036;-37
2023/09/25 06:39:26;;;;;;;11.75;5.43;;;;;;;;;;5056812;28;20283;-37
2023/09/25 06:41:51;;;;;;;16.00;6.28;;;;;;;;;;5063756;28;20032;-37
2023/09/25 06:44:17;;;;;;;11.70;5.22;;;;;;;;;;5063604;28;20033;-37
2023/09/25 06:46:43;;;;;;;13.17;6.27;;;;;;;;;;5048827;28;20041;-37
2023/09/25 06:49:08;;;;;;;12.70;6.57;;;;;;;;;;5061023;28;20328;-37
2023/09/25 06:51:34;;;;;;;5.65;3.55;;;;;;;;;;5060460;28;20021;-37
2023/09/25 06:53:59;;;;;;;10.95;6.47;;;;;;;;;;5060500;28;20103;-37
2023/09/25 06:56:25;;;;;;;13.32;5.97;;;;;;;;;;5051191;28;20074;-38
2023/09/25 06:58:53;;;;;;;15.48;8.48;;;;;;;;;;5061287;28;20029;-37
2023/09/25 07:01:18;;;;;;;17.25;7.28;;;;;;;;;;5065084;28;20438;-37
2023/09/25 07:03:47;;;;;;;11.43;5.53;;;;;;;;;;5059628;28;20019;-37
2023/09/25 07:06:12;;;;;;;11.35;5.55;;;;;;;;;;5063029;28;20021;-37
2023/09/25 07:08:38;;;;;;;8.57;5.13;;;;;;;;;;5068657;28;20032;-37
2023/09/25 07:11:03;;;;;;;9.60;4.68;;;;;;;;;;5055497;28;20335;-37
2023/09/25 07:13:29;;;;;;;5.15;3.38;;;;;;;;;;5055183;28;20063;-37
2023/09/25 07:16:04;;;;;;;10.33;5.17;;;;;;;;;;5061569;28;20035;-37
2023/09/25 07:18:29;;;;;;;10.57;5.88;;;;;;;;;;5057633;28;20287;-37
2023/09/25 07:20:54;;;;;;;9.53;4.93;;;;;;;;;;5063923;28;20512;-38
2023/09/25 07:23:19;;;;;;;9.20;5.03;;;;;;;;;;5058737;28;20270;-37
2023/09/25 07:25:45;;;;;;;9.27;4.80;;;;;;;;;;5057376;28;21241;-37
2023/09/25 07:28:11;;;;;;;9.03;4.97;;;;;;;;;;5059202;28;20273;-37
2023/09/25 07:30:41;;;;;;;11.30;4.53;;;;;;;;;;5064665;28;20024;-37
2023/09/25 07:33:07;;;;;;;10.00;5.20;;;;;;;;;;5065298;28;20914;-37
2023/09/25 07:35:34;;;;;;;10.13;5.32;;;;;;;;;;5063680;28;20040;-37
2023/09/25 07:37:59;;;;;;;10.25;5.97;;;;;;;;;;5062645;28;20033;-37
2023/09/25 07:40:26;;;;;;;10.73;5.33;;;;;;;;;;5061812;28;20035;-37
2023/09/25 07:42:52;;;;;;;16.02;5.22;;;;;;;;;;5063530;28;20316;-37
2023/09/25 07:45:22;;;;;;;9.85;5.47;;;;;;;;;;5062209;28;20029;-36
2023/09/25 07:47:48;;;;;;;16.48;7.03;;;;;;;;;;5062254;28;20047;-37
2023/09/25 07:50:13;;;;;;;24.70;14.10;;;;;;;;;;5064199;28;20386;-37
2023/09/25 07:52:39;;;;;;;16.77;9.35;;;;;;;;;;5064560;28;20370;-38
2023/09/25 07:55:10;;;;;;;10.95;5.75;;;;;;;;;;5067831;28;20451;-37
2023/09/25 07:57:39;;;;;;;12.50;5.45;;;;;;;;;;5066235;28;20496;-37
2023/09/25 08:00:21;;;;;;;19.90;10.95;;;;;;;;;;5067620;28;20074;-37
2023/09/25 08:02:47;;;;;;;14.32;7.25;;;;;;;;;;5062621;28;20020;-37
2023/09/25 08:05:18;;;;;;;10.93;5.35;;;;;;;;;;5063777;28;20051;-37
2023/09/25 08:07:43;;;;;;;14.65;6.97;;;;;;;;;;5067312;28;20032;-37
2023/09/25 08:10:08;;;;;;;11.52;6.40;;;;;;;;;;5049022;28;20363;-37
2023/09/25 08:12:34;;;;;;;7.93;4.57;;;;;;;;;;5066523;28;20028;-37
2023/09/25 08:14:59;;;;;;;12.50;6.57;;;;;;;;;;5067657;28;20024;-37
2023/09/25 08:17:24;;;;;;;7.87;5.03;;;;;;;;;;5066646;28;20587;-37
2023/09/25 08:19:52;;;;;;;9.20;4.60;;;;;;;;;;5065132;28;20287;-37
2023/09/25 08:22:18;;;;;;;7.97;4.43;;;;;;;;;;5065063;28;20404;-37
2023/09/25 08:24:43;;;;;;;9.40;3.03;;;;;;;;;;5063818;28;20594;-37
2023/09/25 08:27:09;;;;;;;10.13;4.90;;;;;;;;;;5063765;28;20979;-37
2023/09/25 08:29:35;;;;;;;9.93;4.15;;;;;;;;;;5067955;28;20029;-37
2023/09/25 08:32:00;;;;;;;7.07;3.67;;;;;;;;;;5062540;28;20091;-37
2023/09/25 08:34:26;;;;;;;7.22;4.18;;;;;;;;;;5068913;28;20057;-37
2023/09/25 08:36:51;;;;;;;6.00;3.97;;;;;;;;;;5065965;28;20394;-37
2023/09/25 08:39:17;;;;;;;7.50;3.60;;;;;;;;;;5068612;28;20112;-37
2023/09/25 08:41:43;;;;;;;14.77;9.00;;;;;;;;;;5068334;28;20263;-37
2023/09/25 08:44:10;;;;;;;10.82;5.13;;;;;;;;;;5066838;28;20032;-37
2023/09/25 08:46:35;;;;;;;7.82;4.25;;;;;;;;;;5064012;28;20025;-37
2023/09/25 08:49:02;;;;;;;15.15;4.82;;;;;;;;;;5061611;28;20094;-37
2023/09/25 08:51:34;;;;;;;8.05;4.28;;;;;;;;;;5060637;28;20414;-38
2023/09/25 08:53:59;;;;;;;;;;;;;;;;;;5070917;28;20046;-37
2023/09/25 08:56:24;;;;;;;9.73;4.50;;;;;;;;;;5060328;28;19916;-37
2023/09/25 08:58:51;;;;;;;8.80;4.43;;;;;;;;;;5063820;28;20024;-38
2023/09/25 09:01:16;;;;;;;18.13;9.13;;;;;;;;;;5065864;28;20474;-37
2023/09/25 09:03:42;;;;;;;10.50;4.88;;;;;;;;;;5065849;28;20021;-37
2023/09/25 09:06:07;;;;;;;7.53;4.40;;;;;;;;;;5069604;28;20020;-37
2023/09/25 09:08:32;;;;;;;7.53;4.10;;;;;;;;;;5067276;28;20113;-37
2023/09/25 09:11:07;;;;;;;9.83;3.90;;;;;;;;;;5068874;28;20032;-38
2023/09/25 09:13:40;;;;;;;18.52;6.07;;;;;;;;;;5063882;28;20283;-37
2023/09/25 09:16:10;;;;;;;10.18;4.30;;;;;;;;;;5062963;28;20028;-37
2023/09/25 09:18:37;;;;;;;7.20;3.65;;;;;;;;;;5064131;28;20382;-37
2023/09/25 09:21:03;;;;;;;8.90;3.85;;;;;;;;;;5063706;28;20036;-37
2023/09/25 09:23:41;;;;;;;6.97;3.13;;;;;;;;;;5061511;28;20051;-37
2023/09/25 09:26:07;;;;;;;9.27;3.22;;;;;;;;;;5062768;28;20032;-37
2023/09/25 09:28:32;;;;;;;6.28;3.05;;;;;;;;;;5061968;28;20539;-37
2023/09/25 09:31:02;;;;;;;6.20;2.65;;;;;;;;;;5066098;28;20023;-37
2023/09/25 09:33:29;;;;;;;10.20;5.32;;;;;;;;;;5065941;28;20029;-37
2023/09/25 09:35:55;;;;;;;6.55;3.53;;;;;;;;;;5063808;28;20029;-38
2023/09/25 09:38:21;;;;;;;6.10;2.90;;;;;;;;;;5057749;28;20077;-37
2023/09/25 09:40:46;;;;;;;5.32;3.03;;;;;;;;;;5066078;28;20023;-37
2023/09/25 09:43:12;;;;;;;6.30;3.80;;;;;;;;;;5058564;28;20033;-37
2023/09/25 09:45:38;;;;;;;5.55;2.80;;;;;;;;;;5063617;28;20033;-37
2023/09/25 09:48:06;;;;;;;6.63;3.00;;;;;;;;;;5066264;28;20095;-37
2023/09/25 09:50:33;;;;;;;6.20;2.55;;;;;;;;;;5056162;28;20425;-37
2023/09/25 09:52:59;;;;;;;5.30;2.65;;;;;;;;;;5049236;28;20028;-37
2023/09/25 09:55:27;;;;;;;4.90;2.42;;;;;;;;;;5064038;28;20020;-37
2023/09/25 09:57:54;;;;;;;6.07;3.25;;;;;;;;;;5065165;28;20028;-37
2023/09/25 10:00:20;;;;;;;4.80;2.88;;;;;;;;;;5058674;28;20028;-37
2023/09/25 10:02:46;;;;;;;4.72;3.13;;;;;;;;;;5065149;28;20034;-37
2023/09/25 10:05:13;;;;;;;5.13;2.90;;;;;;;;;;5068149;28;20495;-37
2023/09/25 10:07:57;;;;;;;4.80;2.72;;;;;;;;;;5062081;28;20028;-37
2023/09/25 10:10:22;;;;;;;3.65;2.42;;;;;;;;;;5065965;28;20020;-37
2023/09/25 10:12:49;;;;;;;3.33;2.00;;;;;;;;;;5058630;28;20028;-37
2023/09/25 10:15:19;;;;;;;5.72;2.92;;;;;;;;;;5061058;28;20143;-37
2023/09/25 10:17:45;;;;;;;6.05;2.58;;;;;;;;;;5060702;28;20032;-37
2023/09/25 10:20:26;;;;;;;4.15;2.85;;;;;;;;;;5065758;28;20033;-38
2023/09/25 10:22:52;;;;;;;5.38;2.58;;;;;;;;;;5065098;28;20390;-37
2023/09/25 10:25:17;;;;;;;10.63;5.83;;;;;;;;;;5060357;28;20025;-37
2023/09/25 10:27:46;;;;;;;11.57;4.30;;;;;;;;;;5065722;28;20136;-37
2023/09/25 10:30:14;;;;;;;8.80;4.25;;;;;;;;;;5062578;28;20363;-38
2023/09/25 10:32:43;;;;;;;5.53;2.63;;;;;;;;;;5061717;28;20035;-37
2023/09/25 10:35:26;;;;;;;6.05;2.92;;;;;;;;;;5064697;28;20028;-37
2023/09/25 10:38:10;;;;;;;4.13;1.98;;;;;;;;;;5064275;28;20081;-37
2023/09/25 10:40:39;;;;;;;3.38;2.30;;;;;;;;;;5065258;28;20626;-38
2023/09/25 10:43:04;;;;;;;6.15;2.25;;;;;;;;;;5064371;28;20470;-38
2023/09/25 10:45:30;;;;;;;4.03;2.17;;;;;;;;;;5062749;28;20034;-38
2023/09/25 10:47:55;;;;;;;3.33;2.10;;;;;;;;;;5059394;28;20358;-37
2023/09/25 10:50:21;;;;;;;3.67;2.30;;;;;;;;;;5065439;28;20107;-37
2023/09/25 10:52:46;;;;;;;6.20;1.67;;;;;;;;;;5063867;28;20649;-38
2023/09/25 10:55:12;;;;;;;3.40;2.47;;;;;;;;;;5065433;28;20032;-37
2023/09/25 10:57:37;;;;;;;3.33;1.90;;;;;;;;;;5059640;28;20554;-37
2023/09/25 11:00:09;;;;;;;14.50;3.07;;;;;;;;;;5064807;28;20259;-38
2023/09/25 11:02:34;;;;;;;;;;;;;;;;;;5064275;28;20298;-37
2023/09/25 11:05:01;;;;;;;3.33;1.80;;;;;;;;;;5055242;28;19942;-37
2023/09/25 11:07:26;;;;;;;3.75;1.90;;;;;;;;;;5061050;28;20033;-37
2023/09/25 11:09:52;;;;;;;3.53;2.47;;;;;;;;;;5061214;28;20032;-38
2023/09/25 11:12:18;;;;;;;3.33;1.90;;;;;;;;;;5062438;28;20759;-37
2023/09/25 11:14:43;;;;;;;3.53;2.03;;;;;;;;;;5058900;28;20032;-37
2023/09/25 11:17:08;;;;;;;4.13;2.40;;;;;;;;;;5065707;28;20275;-38
2023/09/25 11:19:34;;;;;;;5.22;2.85;;;;;;;;;;5061025;28;20028;-37
2023/09/25 11:22:01;;;;;;;5.28;2.67;;;;;;;;;;5065952;28;20035;-38
2023/09/25 11:24:27;;;;;;;6.05;2.50;;;;;;;;;;5063163;28;20051;-37
2023/09/25 11:26:53;;;;;;;8.70;2.63;;;;;;;;;;5065864;28;20041;-37
2023/09/25 11:29:18;;;;;;;5.30;2.58;;;;;;;;;;5066736;28;20398;-38
2023/09/25 11:31:43;;;;;;;3.55;2.20;;;;;;;;;;5065769;28;20024;-37
2023/09/25 11:34:09;;;;;;;3.00;1.90;;;;;;;;;;5065637;28;20024;-37
2023/09/25 11:36:34;;;;;;;3.50;1.92;;;;;;;;;;5066213;28;20770;-37
2023/09/25 11:39:00;;;;;;;4.13;2.10;;;;;;;;;;5068019;28;20028;-38
2023/09/25 11:41:25;;;;;;;4.22;2.25;;;;;;;;;;5068937;28;20060;-37
2023/09/25 11:43:51;;;;;;;4.70;1.93;;;;;;;;;;5068518;28;20068;-37
2023/09/25 11:46:16;;;;;;;5.50;2.15;;;;;;;;;;5061497;28;20793;-37
2023/09/25 11:48:41;;;;;;;4.55;2.35;;;;;;;;;;5046469;28;20031;-37
2023/09/25 11:51:07;;;;;;;4.47;2.63;;;;;;;;;;5060743;28;21157;-37
2023/09/25 11:53:32;;;;;;;4.85;2.58;;;;;;;;;;5054600;28;20024;-38
2023/09/25 11:55:57;;;;;;;4.40;2.10;;;;;;;;;;5057968;28;20021;-37
2023/09/25 11:58:23;;;;;;;4.90;2.00;;;;;;;;;;5059122;28;20033;-37
2023/09/25 12:00:48;;;;;;;3.55;1.83;;;;;;;;;;5060022;28;20036;-37
2023/09/25 12:03:13;;;;;;;5.10;1.97;;;;;;;;;;5059719;28;20086;-37
2023/09/25 12:05:39;;;;;;;8.50;4.32;;;;;;;;;;5056207;28;20285;-38
2023/09/25 12:08:06;;;;;;;3.90;2.25;;;;;;;;;;5056922;28;20231;-37
2023/09/25 12:10:37;;;;;;;3.80;2.13;;;;;;;;;;5059858;28;20017;-37
2023/09/25 12:13:03;;;;;;;6.82;2.30;;;;;;;;;;5060931;28;20034;-37
2023/09/25 12:15:29;;;;;;;3.13;2.03;;;;;;;;;;5061346;28;20016;-38
2023/09/25 12:17:54;;;;;;;3.60;1.80;;;;;;;;;;5068920;28;20025;-39
2023/09/25 12:20:20;;;;;;;3.47;1.75;;;;;;;;;;5061249;28;20301;-38
2023/09/25 12:22:46;;;;;;;2.42;1.20;;;;;;;;;;5061742;28;20067;-37
2023/09/25 12:25:12;;;;;;;5.05;2.28;;;;;;;;;;5060889;28;20020;-37
2023/09/25 12:27:39;;;;;;;3.72;1.90;;;;;;;;;;5055749;28;20036;-37
2023/09/25 12:30:07;;;;;;;4.68;2.00;;;;;;;;;;5057768;28;20040;-37
2023/09/25 12:32:32;;;;;;;6.03;1.77;;;;;;;;;;5057762;28;20036;-37
2023/09/25 12:34:57;;;;;;;4.28;1.90;;;;;;;;;;5057760;28;20054;-38
2023/09/25 12:37:25;;;;;;;7.23;3.30;;;;;;;;;;5065613;28;20081;-38
2023/09/25 12:39:50;;;;;;;6.90;2.78;;;;;;;;;;5040398;28;20033;-37
2023/09/25 12:42:16;;;;;;;5.18;2.05;;;;;;;;;;5055497;28;20036;-37
2023/09/25 12:44:41;;;;;;;3.75;1.95;;;;;;;;;;5053675;28;20052;-37
2023/09/25 12:47:06;;;;;;;4.82;1.83;;;;;;;;;;5055388;28;20032;-38
2023/09/25 12:49:31;;;;;;;3.60;2.07;;;;;;;;;;5052810;28;20059;-37
2023/09/25 12:51:57;;;;;;;3.63;2.17;;;;;;;;;;5037549;28;20270;-37
2023/09/25 12:54:22;;;;;;;6.68;2.08;;;;;;;;;;5057127;28;20028;-37
2023/09/25 12:56:48;;;;;;;10.65;2.35;;;;;;;;;;5058077;28;20021;-38
2023/09/25 12:59:13;;;;;;;4.60;1.83;;;;;;;;;;5055367;28;20052;-37
2023/09/25 13:01:39;;;;;;;3.10;1.80;;;;;;;;;;5064646;28;20036;-37
2023/09/25 13:04:04;;;;;;;2.55;1.42;;;;;;;;;;5065806;28;20072;-38
2023/09/25 13:06:31;;;;;;;3.85;2.25;;;;;;;;;;5069241;28;20441;-38
2023/09/25 13:08:57;;;;;;;6.22;2.78;;;;;;;;;;5062637;28;20390;-38
2023/09/25 13:11:22;;;;;;;5.18;3.00;;;;;;;;;;5069485;28;20036;-38
2023/09/25 13:13:47;;;;;;;4.53;2.80;;;;;;;;;;5064601;28;20025;-37
2023/09/25 13:16:13;;;;;;;2.87;1.37;;;;;;;;;;5057355;28;20027;-38
2023/09/25 13:18:38;;;;;;;2.33;1.38;;;;;;;;;;5063551;28;20478;-38
2023/09/25 13:21:03;;;;;;;5.18;1.60;;;;;;;;;;5054186;28;20371;-37
2023/09/25 13:23:30;;;;;;;4.10;1.85;;;;;;;;;;5060640;28;20025;-37
2023/09/25 13:25:56;;;;;;;2.45;1.25;;;;;;;;;;5064503;28;20074;-37
2023/09/25 13:28:21;;;;;;;2.58;1.38;;;;;;;;;;5064926;28;20763;-38
2023/09/25 13:30:46;;;;;;;3.97;2.10;;;;;;;;;;5067275;28;20021;-38
2023/09/25 13:33:12;;;;;;;3.72;1.40;;;;;;;;;;5061352;28;20267;-38
2023/09/25 13:35:37;;;;;;;2.47;1.20;;;;;;;;;;5055573;28;20028;-38
2023/09/25 13:38:02;;;;;;;5.93;2.80;;;;;;;;;;5056957;28;20036;-38
2023/09/25 13:40:28;;;;;;;5.57;2.60;;;;;;;;;;5064255;28;20261;-38
2023/09/25 13:42:54;;;;;;;5.22;1.60;;;;;;;;;;5064525;28;20375;-38
2023/09/25 13:45:19;;;;;;;5.50;1.80;;;;;;;;;;5058324;28;20031;-37
2023/09/25 13:47:45;;;;;;;1.98;1.10;;;;;;;;;;5046736;28;20864;-38
2023/09/25 13:50:11;;;;;;;2.17;1.30;;;;;;;;;;5061193;28;20254;-38
2023/09/25 13:52:36;;;;;;;4.32;1.48;;;;;;;;;;5059681;28;20070;-37
2023/09/25 13:55:02;;;;;;;4.35;1.63;;;;;;;;;;5058024;28;20059;-37
2023/09/25 13:57:27;;;;;;;3.58;1.65;;;;;;;;;;5062396;28;20024;-38
2023/09/25 13:59:52;;;;;;;4.57;1.30;;;;;;;;;;5059867;28;20040;-37
2023/09/25 14:02:17;;;;;;;2.07;1.20;;;;;;;;;;5060696;28;20041;-38
2023/09/25 14:04:43;;;;;;;5.57;2.43;;;;;;;;;;5056581;28;20737;-38
2023/09/25 14:07:08;;;;;;;2.23;1.27;;;;;;;;;;5065776;28;20036;-37
2023/09/25 14:09:34;;;;;;;6.80;1.67;;;;;;;;;;5060588;28;20655;-38
2023/09/25 14:11:59;;;;;;;3.88;2.00;;;;;;;;;;5054603;28;20024;-38
2023/09/25 14:14:39;;;;;;;4.23;1.60;;;;;;;;;;5060637;28;20028;-38
2023/09/25 14:17:04;;;;;;;3.78;1.33;;;;;;;;;;5059453;28;20561;-38
2023/09/25 14:19:29;;;;;;;2.70;1.70;;;;;;;;;;5061785;28;20042;-38
2023/09/25 14:21:54;;;;;;;3.57;1.40;;;;;;;;;;5065594;28;20074;-38
2023/09/25 14:24:20;;;;;;;2.43;1.30;;;;;;;;;;5062076;28;20278;-37
2023/09/25 14:26:45;;;;;;;2.80;1.20;;;;;;;;;;5064087;28;20650;-38
2023/09/25 14:29:11;;;;;;;3.67;1.08;;;;;;;;;;5056295;28;20024;-38
2023/09/25 14:31:36;;;;;;;2.80;1.30;;;;;;;;;;5062598;28;20035;-37
2023/09/25 14:34:01;;;;;;;5.60;1.40;;;;;;;;;;5054812;28;20031;-38
2023/09/25 14:36:28;;;;;;;3.15;1.38;;;;;;;;;;5062454;28;20263;-38
2023/09/25 14:38:53;;;;;;;3.08;1.40;;;;;;;;;;5065479;28;20036;-38
2023/09/25 14:41:19;;;;;;;2.70;1.33;;;;;;;;;;5066077;28;20033;-38
2023/09/25 14:43:44;;;;;;;7.33;2.00;;;;;;;;;;5062621;28;20036;-38
2023/09/25 14:46:10;;;;;;;4.32;2.35;;;;;;;;;;5064654;28;20460;-38
2023/09/25 14:48:35;;;;;;;4.70;1.50;;;;;;;;;;5064965;28;20099;-38
2023/09/25 14:51:00;;;;;;;4.33;1.60;;;;;;;;;;5062021;28;20060;-38
2023/09/25 14:53:26;;;;;;;8.02;1.83;;;;;;;;;;5059986;28;20471;-38